sensor_id;sensor_type;location;lat;lon;timestamp;pressure;altitude;pressure_sealevel;temperature;humidity
50103;BME280;35993;52.604;10.078;2023-03-20T00:00:32;101277.75;;;8.94;100.00
50103;BME280;35993;52.604;10.078;2023-03-20T00:02:58;101278.34;;;8.89;100.00
50103;BME280;35993;52.604;10.078;2023-03-20T00:05:25;101287.69;;;8.87;100.00
50103;BME280;35993;52.604;10.078;2023-03-20T00:07:51;101288.47;;;8.80;100.00
50103;BME280;35993;52.604;10.078;2023-03-20T00:10:18;101293.13;;;8.87;100.00
50103;BME280;35993;52.604;10.078;2023-03-20T00:12:46;101288.94;;;8.69;100.00
50103;BME280;35993;52.604;10.078;2023-03-20T00:15:22;101296.41;;;8.67;100.00
50103;BME280;35993;52.604;10.078;2023-03-20T00:17:49;101290.56;;;8.63;100.00
50103;BME280;35993;52.604;10.078;2023-03-20T00:20:15;101292.81;;;8.60;100.00
50103;BME280;35993;52.604;10.078;2023-03-20T00:22:41;101288.16;;;8.53;100.00
50103;BME280;35993;52.604;10.078;2023-03-20T00:25:12;101287.06;;;8.48;100.00
50103;BME280;35993;52.604;10.078;2023-03-20T00:27:38;101299.91;;;8.46;100.00
50103;BME280;35993;52.604;10.078;2023-03-20T00:30:17;101306.03;;;8.40;100.00
50103;BME280;35993;52.604;10.078;2023-03-20T00:32:43;101299.63;;;8.41;100.00
50103;BME280;35993;52.604;10.078;2023-03-20T00:35:24;101295.44;;;8.53;100.00
50103;BME280;35993;52.604;10.078;2023-03-20T00:37:51;101301.19;;;8.65;100.00
50103;BME280;35993;52.604;10.078;2023-03-20T00:40:18;101326.97;;;8.46;100.00
50103;BME280;35993;52.604;10.078;2023-03-20T00:42:46;101325.09;;;8.31;100.00
50103;BME280;35993;52.604;10.078;2023-03-20T00:45:17;101322.84;;;8.50;100.00
50103;BME280;35993;52.604;10.078;2023-03-20T00:47:44;101317.72;;;8.40;100.00
50103;BME280;35993;52.604;10.078;2023-03-20T00:50:17;101315.47;;;8.44;100.00
50103;BME280;35993;52.604;10.078;2023-03-20T00:52:45;101315.75;;;8.34;100.00
50103;BME280;35993;52.604;10.078;2023-03-20T00:55:10;101317.81;;;8.32;100.00
50103;BME280;35993;52.604;10.078;2023-03-20T00:57:43;101318.34;;;8.27;100.00
50103;BME280;35993;52.604;10.078;2023-03-20T01:03:10;101325.09;;;8.31;100.00
50103;BME280;35993;52.604;10.078;2023-03-20T01:05:37;101324.53;;;8.21;100.00
50103;BME280;35993;52.604;10.078;2023-03-20T01:08:21;101322.19;;;8.18;100.00
50103;BME280;35993;52.604;10.078;2023-03-20T01:10:50;101326.97;;;8.16;100.00
50103;BME280;35993;52.604;10.078;2023-03-20T01:13:18;101334.78;;;8.26;100.00
50103;BME280;35993;52.604;10.078;2023-03-20T01:15:46;101324.97;;;8.25;100.00
50103;BME280;35993;52.604;10.078;2023-03-20T01:18:14;101318.47;;;8.19;100.00
50103;BME280;35993;52.604;10.078;2023-03-20T01:20:41;101329.66;;;8.16;100.00
50103;BME280;35993;52.604;10.078;2023-03-20T01:23:07;101322.19;;;8.18;100.00
50103;BME280;35993;52.604;10.078;2023-03-20T01:25:33;101329.09;;;8.20;100.00
50103;BME280;35993;52.604;10.078;2023-03-20T01:27:59;101333.66;;;8.20;100.00
50103;BME280;35993;52.604;10.078;2023-03-20T01:30:28;101334.13;;;8.24;100.00
50103;BME280;35993;52.604;10.078;2023-03-20T01:32:55;101328.72;;;8.24;100.00
50103;BME280;35993;52.604;10.078;2023-03-20T01:35:23;101328.63;;;8.32;100.00
50103;BME280;35993;52.604;10.078;2023-03-20T01:37:50;101326.94;;;8.31;100.00
50103;BME280;35993;52.604;10.078;2023-03-20T01:42:55;101330.38;;;8.25;100.00
50103;BME280;35993;52.604;10.078;2023-03-20T01:45:25;101329.75;;;8.23;100.00
50103;BME280;35993;52.604;10.078;2023-03-20T01:47:51;101329.19;;;8.27;100.00
50103;BME280;35993;52.604;10.078;2023-03-20T01:50:30;101345.31;;;8.35;100.00
50103;BME280;35993;52.604;10.078;2023-03-20T01:53:07;101340.28;;;8.32;100.00
50103;BME280;35993;52.604;10.078;2023-03-20T01:55:40;101347.66;;;8.24;100.00
50103;BME280;35993;52.604;10.078;2023-03-20T01:58:13;101343.63;;;8.19;100.00
50103;BME280;35993;52.604;10.078;2023-03-20T02:00:40;101341.03;;;8.26;100.00
50103;BME280;35993;52.604;10.078;2023-03-20T02:03:10;101344.19;;;8.30;100.00
50103;BME280;35993;52.604;10.078;2023-03-20T02:05:55;101339.28;;;8.18;100.00
50103;BME280;35993;52.604;10.078;2023-03-20T02:08:27;101350.72;;;8.20;100.00
50103;BME280;35993;52.604;10.078;2023-03-20T02:10:55;101351.75;;;8.19;100.00
50103;BME280;35993;52.604;10.078;2023-03-20T02:13:25;101351.94;;;8.18;100.00
50103;BME280;35993;52.604;10.078;2023-03-20T02:15:56;101359.56;;;8.14;100.00
50103;BME280;35993;52.604;10.078;2023-03-20T02:18:36;101357.81;;;8.22;100.00
50103;BME280;35993;52.604;10.078;2023-03-20T02:38:40;101365.09;;;8.21;100.00
50103;BME280;35993;52.604;10.078;2023-03-20T02:41:27;101359.41;;;8.16;100.00
50103;BME280;35993;52.604;10.078;2023-03-20T02:47:34;101350.81;;;8.12;100.00
50103;BME280;35993;52.604;10.078;2023-03-20T02:53:18;101352.97;;;8.17;100.00
50103;BME280;35993;52.604;10.078;2023-03-20T02:56:01;101349.50;;;8.23;100.00
50103;BME280;35993;52.604;10.078;2023-03-20T02:58:51;101347.66;;;8.24;100.00
50103;BME280;35993;52.604;10.078;2023-03-20T03:01:26;101345.50;;;8.19;100.00
50103;BME280;35993;52.604;10.078;2023-03-20T03:03:59;101339.56;;;8.24;100.00
50103;BME280;35993;52.604;10.078;2023-03-20T03:06:29;101341.13;;;8.18;100.00
50103;BME280;35993;52.604;10.078;2023-03-20T03:09:30;101344.69;;;8.18;100.00
50103;BME280;35993;52.604;10.078;2023-03-20T03:12:05;101345.91;;;8.16;100.00
50103;BME280;35993;52.604;10.078;2023-03-20T03:14:39;101351.41;;;8.23;100.00
50103;BME280;35993;52.604;10.078;2023-03-20T03:17:13;101345.13;;;8.22;100.00
50103;BME280;35993;52.604;10.078;2023-03-20T03:19:45;101338.16;;;8.28;100.00
50103;BME280;35993;52.604;10.078;2023-03-20T03:22:14;101338.16;;;8.28;100.00
50103;BME280;35993;52.604;10.078;2023-03-20T03:24:45;101341.69;;;8.28;100.00
50103;BME280;35993;52.604;10.078;2023-03-20T03:27:36;101333.75;;;8.27;100.00
50103;BME280;35993;52.604;10.078;2023-03-20T03:30:17;101333.28;;;8.23;100.00
50103;BME280;35993;52.604;10.078;2023-03-20T03:33:33;101331.13;;;8.33;100.00
50103;BME280;35993;52.604;10.078;2023-03-20T03:35:41;101327.53;;;8.26;100.00
50103;BME280;35993;52.604;10.078;2023-03-20T03:38:30;101327.03;;;8.23;100.00
50103;BME280;35993;52.604;10.078;2023-03-20T03:47:08;101321.84;;;8.21;100.00
50103;BME280;35993;52.604;10.078;2023-03-20T03:49:42;101332.19;;;8.17;100.00
50103;BME280;35993;52.604;10.078;2023-03-20T03:52:14;101327.50;;;8.11;100.00
50103;BME280;35993;52.604;10.078;2023-03-20T03:54:44;101330.75;;;8.07;100.00
50103;BME280;35993;52.604;10.078;2023-03-20T03:57:35;101329.84;;;7.99;100.00
50103;BME280;35993;52.604;10.078;2023-03-20T04:00:05;101327.28;;;7.98;100.00
50103;BME280;35993;52.604;10.078;2023-03-20T04:02:41;101326.47;;;7.97;100.00
50103;BME280;35993;52.604;10.078;2023-03-20T04:05:08;101324.59;;;7.98;100.00
50103;BME280;35993;52.604;10.078;2023-03-20T04:07:34;101325.78;;;7.95;100.00
50103;BME280;35993;52.604;10.078;2023-03-20T04:10:01;101329.06;;;7.91;100.00
50103;BME280;35993;52.604;10.078;2023-03-20T04:12:35;101332.69;;;7.83;100.00
50103;BME280;35993;52.604;10.078;2023-03-20T04:15:02;101329.72;;;7.78;100.00
50103;BME280;35993;52.604;10.078;2023-03-20T04:17:28;101322.81;;;7.75;100.00
50103;BME280;35993;52.604;10.078;2023-03-20T04:19:54;101317.09;;;7.70;100.00
50103;BME280;35993;52.604;10.078;2023-03-20T04:22:20;101322.66;;;7.68;100.00
50103;BME280;35993;52.604;10.078;2023-03-20T04:24:46;101314.28;;;7.63;100.00
50103;BME280;35993;52.604;10.078;2023-03-20T04:27:12;101316.53;;;7.60;100.00
50103;BME280;35993;52.604;10.078;2023-03-20T04:29:38;101306.94;;;7.57;100.00
50103;BME280;35993;52.604;10.078;2023-03-20T04:32:36;101310.06;;;7.61;100.00
50103;BME280;35993;52.604;10.078;2023-03-20T04:35:16;101305.88;;;7.58;100.00
50103;BME280;35993;52.604;10.078;2023-03-20T04:37:55;101300.03;;;7.54;100.00
50103;BME280;35993;52.604;10.078;2023-03-20T04:40:21;101307.94;;;7.56;100.00
50103;BME280;35993;52.604;10.078;2023-03-20T04:42:47;101305.97;;;7.50;100.00
50103;BME280;35993;52.604;10.078;2023-03-20T04:45:13;101313.81;;;7.36;100.00
50103;BME280;35993;52.604;10.078;2023-03-20T04:47:39;101320.09;;;7.37;100.00
50103;BME280;35993;52.604;10.078;2023-03-20T04:50:05;101315.59;;;7.29;100.00
50103;BME280;35993;52.604;10.078;2023-03-20T04:52:31;101317.13;;;7.24;100.00
50103;BME280;35993;52.604;10.078;2023-03-20T04:54:57;101315.94;;;7.26;100.00
50103;BME280;35993;52.604;10.078;2023-03-20T04:57:23;101322.72;;;7.22;100.00
50103;BME280;35993;52.604;10.078;2023-03-20T04:59:48;101322.91;;;7.20;100.00
50103;BME280;35993;52.604;10.078;2023-03-20T05:02:14;101324.63;;;7.13;100.00
50103;BME280;35993;52.604;10.078;2023-03-20T05:04:42;101324.16;;;7.10;100.00
50103;BME280;35993;52.604;10.078;2023-03-20T05:07:08;101326.69;;;7.11;100.00
50103;BME280;35993;52.604;10.078;2023-03-20T05:09:42;101320.81;;;7.08;100.00
50103;BME280;35993;52.604;10.078;2023-03-20T05:12:11;101325.97;;;7.17;100.00
50103;BME280;35993;52.604;10.078;2023-03-20T05:14:45;101319.53;;;7.18;100.00
50103;BME280;35993;52.604;10.078;2023-03-20T05:17:31;101310.41;;;7.19;100.00
50103;BME280;35993;52.604;10.078;2023-03-20T05:20:06;101321.88;;;7.21;100.00
50103;BME280;35993;52.604;10.078;2023-03-20T05:22:54;101320.88;;;7.22;100.00
50103;BME280;35993;52.604;10.078;2023-03-20T05:25:37;101327.59;;;7.27;100.00
50103;BME280;35993;52.604;10.078;2023-03-20T05:28:18;101324.22;;;7.25;100.00
50103;BME280;35993;52.604;10.078;2023-03-20T05:31:05;101319.13;;;7.30;100.00
50103;BME280;35993;52.604;10.078;2023-03-20T05:33:51;101312.31;;;7.34;100.00
50103;BME280;35993;52.604;10.078;2023-03-20T05:36:26;101325.00;;;7.33;100.00
50103;BME280;35993;52.604;10.078;2023-03-20T05:39:15;101325.00;;;7.33;100.00
50103;BME280;35993;52.604;10.078;2023-03-20T05:42:09;101324.56;;;7.45;100.00
50103;BME280;35993;52.604;10.078;2023-03-20T05:44:46;101327.47;;;7.43;100.00
50103;BME280;35993;52.604;10.078;2023-03-20T05:47:24;101326.06;;;7.47;100.00
50103;BME280;35993;52.604;10.078;2023-03-20T05:49:50;101325.53;;;7.52;100.00
50103;BME280;35993;52.604;10.078;2023-03-20T05:52:42;101328.06;;;7.53;100.00
50103;BME280;35993;52.604;10.078;2023-03-20T05:55:22;101324.88;;;7.50;100.00
50103;BME280;35993;52.604;10.078;2023-03-20T05:58:11;101328.88;;;7.54;100.00
50103;BME280;35993;52.604;10.078;2023-03-20T06:00:56;101320.44;;;7.57;100.00
50103;BME280;35993;52.604;10.078;2023-03-20T06:03:48;101326.75;;;7.49;100.00
50103;BME280;35993;52.604;10.078;2023-03-20T06:06:20;101327.03;;;7.54;100.00
50103;BME280;35993;52.604;10.078;2023-03-20T06:08:48;101323.13;;;7.57;100.00
50103;BME280;35993;52.604;10.078;2023-03-20T06:11:13;101328.47;;;7.65;100.00
50103;BME280;35993;52.604;10.078;2023-03-20T06:13:40;101331.25;;;7.72;100.00
50103;BME280;35993;52.604;10.078;2023-03-20T06:16:06;101325.03;;;7.71;100.00
50103;BME280;35993;52.604;10.078;2023-03-20T06:18:32;101328.69;;;7.79;100.00
50103;BME280;35993;52.604;10.078;2023-03-20T06:20:57;101332.75;;;7.75;100.00
50103;BME280;35993;52.604;10.078;2023-03-20T06:23:26;101332.94;;;7.73;100.00
50103;BME280;35993;52.604;10.078;2023-03-20T06:25:52;101342.56;;;7.76;100.00
50103;BME280;35993;52.604;10.078;2023-03-20T06:28:19;101343.22;;;7.78;100.00
50103;BME280;35993;52.604;10.078;2023-03-20T06:30:45;101338.84;;;7.77;100.00
50103;BME280;35993;52.604;10.078;2023-03-20T06:33:15;101341.00;;;7.81;100.00
50103;BME280;35993;52.604;10.078;2023-03-20T06:35:54;101354.81;;;7.86;100.00
50103;BME280;35993;52.604;10.078;2023-03-20T06:38:20;101354.81;;;7.86;100.00
50103;BME280;35993;52.604;10.078;2023-03-20T06:40:46;101359.81;;;7.90;100.00
50103;BME280;35993;52.604;10.078;2023-03-20T06:43:15;101362.91;;;7.86;100.00
50103;BME280;35993;52.604;10.078;2023-03-20T06:45:47;101354.41;;;7.90;100.00
50103;BME280;35993;52.604;10.078;2023-03-20T06:48:21;101357.78;;;7.92;100.00
50103;BME280;35993;52.604;10.078;2023-03-20T06:50:51;101361.13;;;7.94;100.00
50103;BME280;35993;52.604;10.078;2023-03-20T06:53:19;101359.75;;;7.98;100.00
50103;BME280;35993;52.604;10.078;2023-03-20T06:56:02;101366.47;;;8.02;100.00
50103;BME280;35993;52.604;10.078;2023-03-20T06:58:27;101363.84;;;7.94;100.00
50103;BME280;35993;52.604;10.078;2023-03-20T07:00:53;101367.03;;;7.97;100.00
50103;BME280;35993;52.604;10.078;2023-03-20T07:03:19;101370.69;;;8.04;100.00
50103;BME280;35993;52.604;10.078;2023-03-20T07:05:47;101370.78;;;8.11;100.00
50103;BME280;35993;52.604;10.078;2023-03-20T07:08:13;101373.47;;;8.11;100.00
50103;BME280;35993;52.604;10.078;2023-03-20T07:10:39;101376.00;;;8.13;100.00
50103;BME280;35993;52.604;10.078;2023-03-20T07:13:05;101371.44;;;8.13;100.00
50103;BME280;35993;52.604;10.078;2023-03-20T07:15:31;101370.03;;;8.17;100.00
50103;BME280;35993;52.604;10.078;2023-03-20T07:17:57;101372.56;;;8.19;100.00
50103;BME280;35993;52.604;10.078;2023-03-20T07:20:25;101370.13;;;8.24;100.00
50103;BME280;35993;52.604;10.078;2023-03-20T07:22:51;101373.03;;;8.23;100.00
50103;BME280;35993;52.604;10.078;2023-03-20T07:25:23;101367.81;;;8.21;100.00
50103;BME280;35993;52.604;10.078;2023-03-20T07:27:48;101375.34;;;8.26;100.00
50103;BME280;35993;52.604;10.078;2023-03-20T07:30:17;101365.56;;;8.25;100.00
50103;BME280;35993;52.604;10.078;2023-03-20T07:32:43;101369.47;;;8.22;100.00
50103;BME280;35993;52.604;10.078;2023-03-20T07:35:10;101367.91;;;8.28;100.00
50103;BME280;35993;52.604;10.078;2023-03-20T07:37:39;101369.47;;;8.22;100.00
50103;BME280;35993;52.604;10.078;2023-03-20T07:40:06;101374.06;;;8.22;100.00
50103;BME280;35993;52.604;10.078;2023-03-20T07:42:34;101377.78;;;8.20;100.00
50103;BME280;35993;52.604;10.078;2023-03-20T07:45:12;101377.13;;;8.18;100.00
50103;BME280;35993;52.604;10.078;2023-03-20T07:47:44;101370.22;;;8.16;100.00
50103;BME280;35993;52.604;10.078;2023-03-20T07:50:10;101372.75;;;8.17;100.00
50103;BME280;35993;52.604;10.078;2023-03-20T07:52:35;101381.59;;;8.11;100.00
50103;BME280;35993;52.604;10.078;2023-03-20T07:55:01;101387.66;;;8.13;100.00
50103;BME280;35993;52.604;10.078;2023-03-20T07:57:26;101397.34;;;8.08;100.00
50103;BME280;35993;52.604;10.078;2023-03-20T07:59:52;101393.53;;;8.02;100.00
50103;BME280;35993;52.604;10.078;2023-03-20T08:02:17;101384.25;;;7.96;100.00
50103;BME280;35993;52.604;10.078;2023-03-20T08:04:44;101390.53;;;7.97;100.00
50103;BME280;35993;52.604;10.078;2023-03-20T08:07:10;101387.97;;;7.95;100.00
50103;BME280;35993;52.604;10.078;2023-03-20T08:09:35;101395.75;;;7.98;100.00
50103;BME280;35993;52.604;10.078;2023-03-20T08:12:01;101396.09;;;7.95;100.00
50103;BME280;35993;52.604;10.078;2023-03-20T08:14:27;101393.00;;;7.83;100.00
50103;BME280;35993;52.604;10.078;2023-03-20T08:16:52;101403.47;;;7.86;100.00
50103;BME280;35993;52.604;10.078;2023-03-20T08:19:18;101400.75;;;7.86;100.00
50103;BME280;35993;52.604;10.078;2023-03-20T08:21:43;101406.63;;;7.90;100.00
50103;BME280;35993;52.604;10.078;2023-03-20T08:24:09;101410.38;;;7.89;100.00
50103;BME280;35993;52.604;10.078;2023-03-20T08:26:35;101402.72;;;7.93;100.00
50103;BME280;35993;52.604;10.078;2023-03-20T08:29:01;101396.66;;;7.91;100.00
50103;BME280;35993;52.604;10.078;2023-03-20T08:31:27;101401.50;;;7.95;100.00
50103;BME280;35993;52.604;10.078;2023-03-20T08:33:54;101412.88;;;7.91;100.00
50103;BME280;35993;52.604;10.078;2023-03-20T08:36:19;101424.00;;;7.96;100.00
50103;BME280;35993;52.604;10.078;2023-03-20T08:38:46;101420.13;;;7.90;100.00
50103;BME280;35993;52.604;10.078;2023-03-20T08:41:12;101434.53;;;8.06;100.00
50103;BME280;35993;52.604;10.078;2023-03-20T08:43:38;101408.16;;;8.08;100.00
50103;BME280;35993;52.604;10.078;2023-03-20T08:46:04;101413.84;;;8.13;100.00
50103;BME280;35993;52.604;10.078;2023-03-20T08:48:29;101411.63;;;8.16;100.00
50103;BME280;35993;52.604;10.078;2023-03-20T08:50:55;101420.56;;;8.17;100.00
50103;BME280;35993;52.604;10.078;2023-03-20T08:53:21;101421.34;;;8.26;100.00
50103;BME280;35993;52.604;10.078;2023-03-20T08:55:48;101417.91;;;8.32;100.00
50103;BME280;35993;52.604;10.078;2023-03-20T08:58:14;101420.06;;;8.36;100.00
50103;BME280;35993;52.604;10.078;2023-03-20T09:00:40;101421.56;;;8.39;100.00
50103;BME280;35993;52.604;10.078;2023-03-20T09:03:15;101419.13;;;8.44;100.00
50103;BME280;35993;52.604;10.078;2023-03-20T09:05:46;101420.34;;;8.42;100.00
50103;BME280;35993;52.604;10.078;2023-03-20T09:08:12;101424.84;;;8.49;100.00
50103;BME280;35993;52.604;10.078;2023-03-20T09:10:38;101416.94;;;8.48;100.00
50103;BME280;35993;52.604;10.078;2023-03-20T09:13:05;101413.38;;;8.47;100.00
50103;BME280;35993;52.604;10.078;2023-03-20T09:15:31;101410.84;;;8.46;100.00
50103;BME280;35993;52.604;10.078;2023-03-20T09:17:57;101411.97;;;8.51;100.00
50103;BME280;35993;52.604;10.078;2023-03-20T09:20:22;101416.56;;;8.66;100.00
50103;BME280;35993;52.604;10.078;2023-03-20T09:22:48;101420.75;;;8.68;100.00
50103;BME280;35993;52.604;10.078;2023-03-20T09:25:14;101428.03;;;8.68;100.00
50103;BME280;35993;52.604;10.078;2023-03-20T09:27:39;101424.00;;;8.64;100.00
50103;BME280;35993;52.604;10.078;2023-03-20T09:30:06;101429.06;;;8.52;100.00
50103;BME280;35993;52.604;10.078;2023-03-20T09:32:33;101430.31;;;8.41;100.00
50103;BME280;35993;52.604;10.078;2023-03-20T09:35:00;101436.38;;;8.43;100.00
50103;BME280;35993;52.604;10.078;2023-03-20T09:37:26;101437.53;;;8.49;100.00
50103;BME280;35993;52.604;10.078;2023-03-20T09:39:51;101437.66;;;8.56;100.00
50103;BME280;35993;52.604;10.078;2023-03-20T09:45:15;101441.19;;;8.56;100.00
50103;BME280;35993;52.604;10.078;2023-03-20T09:47:55;101437.94;;;8.61;100.00
50103;BME280;35993;52.604;10.078;2023-03-20T09:50:33;101438.00;;;8.52;100.00
50103;BME280;35993;52.604;10.078;2023-03-20T09:53:10;101438.88;;;8.53;100.00
50103;BME280;35993;52.604;10.078;2023-03-20T09:55:39;101444.28;;;8.53;100.00
50103;BME280;35993;52.604;10.078;2023-03-20T09:58:11;101444.44;;;8.51;100.00
50103;BME280;35993;52.604;10.078;2023-03-20T10:00:39;101441.19;;;8.56;100.00
50103;BME280;35993;52.604;10.078;2023-03-20T10:03:18;101428.13;;;8.60;100.00
50103;BME280;35993;52.604;10.078;2023-03-20T10:05:49;101439.59;;;8.62;100.00
50103;BME280;35993;52.604;10.078;2023-03-20T10:08:19;101438.56;;;8.63;100.00
50103;BME280;35993;52.604;10.078;2023-03-20T10:22:00;101423.44;;;8.83;100.00
50103;BME280;35993;52.604;10.078;2023-03-20T10:26:54;101419.97;;;8.90;100.00
50103;BME280;35993;52.604;10.078;2023-03-20T10:32:37;101423.63;;;8.97;100.00
50103;BME280;35993;52.604;10.078;2023-03-20T10:35:33;101426.69;;;9.09;100.00
50103;BME280;35993;52.604;10.078;2023-03-20T10:40:40;101424.56;;;9.04;100.00
50103;BME280;35993;52.604;10.078;2023-03-20T10:43:15;101427.34;;;8.96;100.00
50103;BME280;35993;52.604;10.078;2023-03-20T10:45:48;101412.25;;;8.87;100.00
50103;BME280;35993;52.604;10.078;2023-03-20T10:48:20;101411.03;;;8.89;100.00
50103;BME280;35993;52.604;10.078;2023-03-20T10:50:50;101418.00;;;8.98;100.00
50103;BME280;35993;52.604;10.078;2023-03-20T10:53:24;101418.81;;;9.14;100.00
50103;BME280;35993;52.604;10.078;2023-03-20T10:55:53;101413.13;;;9.24;100.00
50103;BME280;35993;52.604;10.078;2023-03-20T10:58:25;101414.94;;;9.38;100.00
50103;BME280;35993;52.604;10.078;2023-03-20T11:00:54;101415.09;;;9.51;100.00
50103;BME280;35993;52.604;10.078;2023-03-20T11:03:22;101403.28;;;9.59;100.00
50103;BME280;35993;52.604;10.078;2023-03-20T11:05:52;101406.28;;;9.49;100.00
50103;BME280;35993;52.604;10.078;2023-03-20T11:08:22;101398.09;;;9.43;100.00
50103;BME280;35993;52.604;10.078;2023-03-20T11:10:56;101401.78;;;9.35;100.00
50103;BME280;35993;52.604;10.078;2023-03-20T11:13:31;101404.78;;;9.25;100.00
50103;BME280;35993;52.604;10.078;2023-03-20T11:16:08;101400.72;;;9.14;100.00
50103;BME280;35993;52.604;10.078;2023-03-20T11:18:35;101403.44;;;9.14;100.00
50103;BME280;35993;52.604;10.078;2023-03-20T11:21:02;101412.13;;;9.10;100.00
50103;BME280;35993;52.604;10.078;2023-03-20T11:23:34;101396.00;;;9.01;100.00
50103;BME280;35993;52.604;10.078;2023-03-20T11:26:05;101407.44;;;9.04;100.00
50103;BME280;35993;52.604;10.078;2023-03-20T11:28:41;101406.13;;;9.14;100.00
50103;BME280;35993;52.604;10.078;2023-03-20T11:34:14;101380.59;;;9.24;100.00
50103;BME280;35993;52.604;10.078;2023-03-20T11:37:00;101382.72;;;9.28;99.94
50103;BME280;35993;52.604;10.078;2023-03-20T11:39:30;101378.41;;;9.34;99.43
50103;BME280;35993;52.604;10.078;2023-03-20T11:42:02;101376.94;;;9.53;98.68
50103;BME280;35993;52.604;10.078;2023-03-20T11:44:32;101378.28;;;9.64;97.35
50103;BME280;35993;52.604;10.078;2023-03-20T11:49:29;101359.94;;;9.88;93.45
50103;BME280;35993;52.604;10.078;2023-03-20T11:51:59;101353.50;;;9.67;90.76
50103;BME280;35993;52.604;10.078;2023-03-20T11:54:26;101365.44;;;9.73;92.37
50103;BME280;35993;52.604;10.078;2023-03-20T11:56:59;101355.69;;;9.78;91.85
50103;BME280;35993;52.604;10.078;2023-03-20T11:59:35;101355.75;;;9.85;90.75
50103;BME280;35993;52.604;10.078;2023-03-20T12:02:18;101346.91;;;9.76;86.57
50103;BME280;35993;52.604;10.078;2023-03-20T12:04:46;101339.78;;;9.75;86.51
50103;BME280;35993;52.604;10.078;2023-03-20T12:07:30;101335.81;;;9.71;86.15
50103;BME280;35993;52.604;10.078;2023-03-20T12:10:00;101339.34;;;9.72;84.53
50103;BME280;35993;52.604;10.078;2023-03-20T12:15:18;101334.00;;;9.78;83.85
50103;BME280;35993;52.604;10.078;2023-03-20T12:23:39;101329.09;;;9.95;82.28
50103;BME280;35993;52.604;10.078;2023-03-20T12:31:29;101314.47;;;10.25;78.50
50103;BME280;35993;52.604;10.078;2023-03-20T12:34:17;101315.75;;;10.29;77.78
50103;BME280;35993;52.604;10.078;2023-03-20T12:36:46;101303.44;;;10.33;75.46
50103;BME280;35993;52.604;10.078;2023-03-20T12:39:17;101300.44;;;10.49;75.64
50103;BME280;35993;52.604;10.078;2023-03-20T12:47:19;101304.38;;;10.40;72.73
50103;BME280;35993;52.604;10.078;2023-03-20T12:50:06;101290.44;;;10.50;73.33
50103;BME280;35993;52.604;10.078;2023-03-20T12:52:48;101298.25;;;10.73;73.24
50103;BME280;35993;52.604;10.078;2023-03-20T12:55:33;101290.53;;;10.77;72.13
50103;BME280;35993;52.604;10.078;2023-03-20T13:00:39;101293.72;;;10.45;72.28
50103;BME280;35993;52.604;10.078;2023-03-20T13:06:19;101308.03;;;10.26;75.20
50103;BME280;35993;52.604;10.078;2023-03-20T13:12:04;101300.69;;;10.20;75.16
50103;BME280;35993;52.604;10.078;2023-03-20T13:14:47;101303.97;;;10.15;74.70
50103;BME280;35993;52.604;10.078;2023-03-20T13:20:29;101297.78;;;9.93;75.14
50103;BME280;35993;52.604;10.078;2023-03-20T13:28:05;101302.22;;;10.00;75.77
50103;BME280;35993;52.604;10.078;2023-03-20T13:30:40;101300.03;;;10.17;74.37
50103;BME280;35993;52.604;10.078;2023-03-20T13:33:28;101282.94;;;10.24;72.72
50103;BME280;35993;52.604;10.078;2023-03-20T13:38:39;101280.91;;;10.32;70.96
50103;BME280;35993;52.604;10.078;2023-03-20T13:41:09;101283.69;;;10.39;71.55
50103;BME280;35993;52.604;10.078;2023-03-20T13:43:39;101280.97;;;10.39;71.38
50103;BME280;35993;52.604;10.078;2023-03-20T13:46:08;101283.06;;;10.37;70.90
50103;BME280;35993;52.604;10.078;2023-03-20T13:48:39;101275.69;;;10.31;70.37
50103;BME280;35993;52.604;10.078;2023-03-20T13:53:52;101298.84;;;10.27;71.33
50103;BME280;35993;52.604;10.078;2023-03-20T14:02:03;101278.28;;;10.11;70.20
50103;BME280;35993;52.604;10.078;2023-03-20T14:04:34;101279.19;;;10.18;71.12
50103;BME280;35993;52.604;10.078;2023-03-20T14:06:59;101271.03;;;10.18;71.65
50103;BME280;35993;52.604;10.078;2023-03-20T14:09:28;101276.03;;;10.14;71.51
50103;BME280;35993;52.604;10.078;2023-03-20T14:11:56;101280.56;;;10.07;72.35
50103;BME280;35993;52.604;10.078;2023-03-20T14:14:26;101274.91;;;10.02;72.11
50103;BME280;35993;52.604;10.078;2023-03-20T14:17:26;101274.03;;;9.95;73.20
50103;BME280;35993;52.604;10.078;2023-03-20T14:19:54;101277.00;;;10.00;72.71
50103;BME280;35993;52.604;10.078;2023-03-20T14:22:23;101279.53;;;10.08;72.98
50103;BME280;35993;52.604;10.078;2023-03-20T14:25:03;101274.94;;;10.09;72.75
50103;BME280;35993;52.604;10.078;2023-03-20T14:27:35;101277.47;;;10.10;72.96
50103;BME280;35993;52.604;10.078;2023-03-20T14:36:13;101279.88;;;10.33;72.75
50103;BME280;35993;52.604;10.078;2023-03-20T14:38:51;101276.72;;;10.30;72.13
50103;BME280;35993;52.604;10.078;2023-03-20T14:49:03;101275.63;;;10.24;72.18
50103;BME280;35993;52.604;10.078;2023-03-20T14:51:41;101269.63;;;10.29;71.97
50103;BME280;35993;52.604;10.078;2023-03-20T14:56:49;101267.22;;;10.06;71.02
50103;BME280;35993;52.604;10.078;2023-03-20T14:59:17;101280.75;;;9.99;72.16
50103;BME280;35993;52.604;10.078;2023-03-20T15:01:58;101270.75;;;10.06;72.77
50103;BME280;35993;52.604;10.078;2023-03-20T15:04:33;101279.13;;;10.11;72.93
50103;BME280;35993;52.604;10.078;2023-03-20T15:07:22;101270.56;;;10.08;72.38
50103;BME280;35993;52.604;10.078;2023-03-20T15:09:52;101276.34;;;9.98;72.93